Time;durP1;ratioP1;P1;durP2;ratioP2;P2;SDS_P1;SDS_P2;PMS_P1;PMS_P2;Temp;Humidity;BMP_temperature;BMP_pressure;BME280_temperature;BME280_humidity;BME280_pressure;Samples;Min_cycle;Max_cycle;Signal;HPM_P1;HPM_P2
2022/06/14 00:00:53;;;;;;;4.70;1.60;;;14.30;99.90;;;;;;4980980;28;20073;-87
2022/06/14 00:02:49;;;;;;;3.75;1.25;;;14.20;99.90;;;;;;4953702;28;20475;-91
2022/06/14 00:05:17;;;;;;;8.38;1.50;;;14.20;99.90;;;;;;4999628;28;20046;-90
2022/06/14 00:07:44;;;;;;;5.68;1.20;;;14.30;99.90;;;;;;5002271;28;20109;-92
2022/06/14 00:10:12;;;;;;;1.77;1.00;;;14.30;99.90;;;;;;4973031;28;20128;-92
2022/06/14 00:12:40;;;;;;;1.75;1.38;;;14.20;99.90;;;;;;5002298;28;20205;-88
2022/06/14 00:15:07;;;;;;;3.88;1.40;;;14.20;99.90;;;;;;4985438;28;20572;-91
2022/06/14 00:17:35;;;;;;;2.85;2.10;;;14.20;99.90;;;;;;4999782;28;20054;-91
2022/06/14 00:20:03;;;;;;;4.32;1.40;;;14.20;99.90;;;;;;5007480;28;20411;-92
2022/06/14 00:22:32;;;;;;;3.22;1.25;;;14.10;99.90;;;;;;4985224;28;20056;-89
2022/06/14 00:24:59;;;;;;;6.03;1.38;;;14.10;99.90;;;;;;4980900;28;20068;-90
2022/06/14 00:27:28;;;;;;;4.20;1.17;;;14.10;99.90;;;;;;5004071;28;20050;-89
2022/06/14 00:29:55;;;;;;;1.73;1.42;;;14.10;99.90;;;;;;4977980;28;20503;-90
2022/06/14 00:32:22;;;;;;;5.22;1.95;;;14.00;99.90;;;;;;4965816;28;20046;-89
2022/06/14 00:34:50;;;;;;;4.20;1.48;;;14.00;99.90;;;;;;4989104;28;20515;-88
2022/06/14 00:37:19;;;;;;;4.70;2.22;;;14.00;99.90;;;;;;4975500;28;20683;-88
2022/06/14 00:39:47;;;;;;;3.25;1.60;;;14.00;99.90;;;;;;4985601;28;20069;-89
2022/06/14 00:42:20;;;;;;;4.05;1.35;;;14.00;99.90;;;;;;4970468;28;20558;-89
2022/06/14 00:45:06;;;;;;;2.97;1.23;;;14.00;99.90;;;;;;4966340;28;20128;-90
2022/06/14 00:47:39;;;;;;;4.70;1.45;;;14.00;99.90;;;;;;4968820;28;20054;-89
2022/06/14 00:50:15;;;;;;;4.85;1.35;;;13.90;99.90;;;;;;4988185;28;20053;-90
2022/06/14 00:52:48;;;;;;;2.00;1.25;;;13.90;99.90;;;;;;5005290;28;20677;-90
2022/06/14 00:55:23;;;;;;;6.68;1.10;;;13.90;99.90;;;;;;5006955;28;20120;-90
2022/06/14 00:58:08;;;;;;;7.57;1.48;;;13.80;99.90;;;;;;4985414;28;20042;-90
2022/06/14 01:00:44;;;;;;;5.38;2.00;;;13.80;99.90;;;;;;4998891;28;20050;-88
2022/06/14 01:03:22;;;;;;;2.20;2.00;;;13.80;99.90;;;;;;4980320;28;20749;-91
2022/06/14 01:06:05;;;;;;;4.95;1.52;;;13.80;99.90;;;;;;5001751;28;20395;-86
2022/06/14 01:08:48;;;;;;;4.50;2.10;;;13.80;99.90;;;;;;4982949;28;20072;-90
2022/06/14 01:11:38;;;;;;;6.05;1.30;;;13.70;99.90;;;;;;4996928;28;20200;-90
2022/06/14 01:14:07;;;;;;;4.50;3.33;;;13.70;99.90;;;;;;4998965;28;20543;-89
2022/06/14 01:16:37;;;;;;;3.22;1.65;;;13.70;99.90;;;;;;5004981;28;20640;-90
2022/06/14 01:19:17;;;;;;;5.20;1.80;;;13.60;99.90;;;;;;5005493;28;20050;-87
2022/06/14 01:21:50;;;;;;;2.63;1.23;;;13.60;99.90;;;;;;4986674;28;20510;-90
2022/06/14 01:24:21;;;;;;;2.50;1.05;;;13.60;99.90;;;;;;4982432;28;20081;-89
2022/06/14 01:26:49;;;;;;;4.85;2.42;;;13.50;99.90;;;;;;5005396;28;20071;-90
2022/06/14 01:29:17;;;;;;;5.63;2.03;;;13.50;99.90;;;;;;5000389;28;20073;-90
2022/06/14 01:31:45;;;;;;;8.05;2.63;;;13.50;99.90;;;;;;5016624;28;20104;-90
2022/06/14 01:34:13;;;;;;;5.13;1.50;;;13.50;99.90;;;;;;4942597;28;20056;-90
2022/06/14 01:36:41;;;;;;;4.90;1.35;;;13.50;99.90;;;;;;4982690;28;20136;-90
2022/06/14 01:39:12;;;;;;;5.57;1.88;;;13.50;99.90;;;;;;4987856;28;20068;-90
2022/06/14 01:41:54;;;;;;;;;;;13.40;99.90;;;;;;5003863;28;20507;-90
2022/06/14 01:44:46;;;;;;;3.70;1.65;;;13.40;99.90;;;;;;5001677;28;19925;-90
2022/06/14 01:47:24;;;;;;;3.83;1.55;;;13.40;99.90;;;;;;5000368;28;20125;-89
2022/06/14 01:53:38;;;;;;;4.55;2.17;;;13.40;99.90;;;;;;4988594;28;20052;-89
2022/06/14 01:56:31;;;;;;;5.95;2.13;;;13.40;99.90;;;;;;4999475;28;20049;-90
2022/06/14 01:59:40;;;;;;;5.10;1.70;;;13.30;99.90;;;;;;4982982;28;20061;-89
2022/06/14 02:02:16;;;;;;;2.15;1.35;;;13.30;99.90;;;;;;5001458;28;20049;-90
2022/06/14 02:05:13;;;;;;;4.43;1.63;;;13.30;99.90;;;;;;4984613;28;20065;-91
2022/06/14 02:08:06;;;;;;;2.70;1.63;;;13.30;99.90;;;;;;4982034;28;20442;-91
2022/06/14 02:10:58;;;;;;;3.63;2.53;;;13.30;99.90;;;;;;4968076;28;20081;-90
2022/06/14 02:13:53;;;;;;;6.70;2.42;;;13.30;99.90;;;;;;4984501;28;20072;-90
2022/06/14 02:16:27;;;;;;;7.25;1.98;;;13.20;99.90;;;;;;4999322;28;20052;-89
2022/06/14 02:19:33;;;;;;;4.65;1.90;;;13.20;99.90;;;;;;5006751;28;20472;-89
2022/06/14 02:22:10;;;;;;;2.05;1.75;;;13.20;99.90;;;;;;4939598;28;20039;-89
2022/06/14 02:24:46;;;;;;;7.22;2.47;;;13.20;99.90;;;;;;4965535;28;22688;-89
2022/06/14 02:27:16;;;;;;;4.05;2.30;;;13.20;99.90;;;;;;4999198;28;20057;-87
2022/06/14 02:29:52;;;;;;;5.63;2.85;;;13.20;99.90;;;;;;5000990;28;20087;-90
2022/06/14 02:32:26;;;;;;;5.32;2.00;;;13.30;99.90;;;;;;4960790;28;20060;-89
2022/06/14 02:35:04;;;;;;;4.97;2.42;;;13.20;99.90;;;;;;4988638;28;20141;-90
2022/06/14 02:37:38;;;;;;;5.47;2.53;;;13.20;99.90;;;;;;4998055;28;20049;-89
2022/06/14 02:40:15;;;;;;;9.45;2.40;;;13.20;99.90;;;;;;4998020;28;20100;-89
2022/06/14 02:43:02;;;;;;;7.93;2.40;;;13.20;99.90;;;;;;5005784;28;20042;-88
2022/06/14 02:45:40;;;;;;;8.32;2.40;;;13.20;99.90;;;;;;4989202;28;20114;-88
2022/06/14 02:48:14;;;;;;;5.03;1.92;;;13.20;99.90;;;;;;4988350;28;20075;-90
2022/06/14 02:50:54;;;;;;;4.47;2.55;;;13.30;99.90;;;;;;4979542;28;20076;-91
2022/06/14 02:53:33;;;;;;;5.68;2.50;;;13.30;99.90;;;;;;4974597;28;20045;-91
2022/06/14 02:56:33;;;;;;;10.95;3.85;;;13.30;99.90;;;;;;4957699;28;20062;-92
2022/06/14 02:59:13;;;;;;;7.32;3.25;;;13.40;99.90;;;;;;5006024;28;20375;-89
2022/06/14 03:01:53;;;;;;;5.13;2.83;;;13.30;99.90;;;;;;4982495;28;20081;-90
2022/06/14 03:04:33;;;;;;;17.20;3.08;;;13.30;99.90;;;;;;5009294;28;20041;-85
2022/06/14 03:07:11;;;;;;;5.18;2.60;;;13.30;99.90;;;;;;4987883;28;20071;-89
2022/06/14 03:09:41;;;;;;;5.15;2.38;;;13.40;99.90;;;;;;5005254;28;20525;-91
2022/06/14 03:12:15;;;;;;;4.22;3.05;;;13.40;99.90;;;;;;4996619;28;20518;-90
2022/06/14 03:15:04;;;;;;;7.03;2.97;;;13.40;99.90;;;;;;5001826;28;20100;-89
2022/06/14 03:17:52;;;;;;;6.50;2.45;;;13.40;99.90;;;;;;4985915;28;20164;-89
2022/06/14 03:21:03;;;;;;;8.73;3.38;;;13.40;99.90;;;;;;5002700;28;20064;-90
2022/06/14 03:24:12;;;;;;;5.90;3.35;;;13.40;99.90;;;;;;5005295;28;20045;-86
2022/06/14 03:27:01;;;;;;;8.98;2.88;;;13.40;99.90;;;;;;4917010;29;20108;-89
2022/06/14 03:29:47;;;;;;;6.55;3.35;;;13.40;99.90;;;;;;5008528;28;20513;-90
2022/06/14 03:32:46;;;;;;;9.07;4.88;;;13.30;99.90;;;;;;5001711;28;20054;-88
2022/06/14 03:35:23;;;;;;;8.98;3.50;;;13.30;99.90;;;;;;4999394;28;20049;-90
2022/06/14 03:37:51;;;;;;;11.95;3.88;;;13.30;99.90;;;;;;4987835;28;20049;-89
2022/06/14 03:40:20;;;;;;;7.30;3.15;;;13.30;99.90;;;;;;5003823;28;20489;-90
2022/06/14 03:42:47;;;;;;;9.07;4.85;;;13.30;99.90;;;;;;4987665;28;20046;-89
2022/06/14 03:45:19;;;;;;;7.15;3.08;;;13.30;99.90;;;;;;4986041;28;20042;-89
2022/06/14 03:47:46;;;;;;;11.52;2.80;;;13.30;99.90;;;;;;5003044;28;20042;-87
2022/06/14 03:50:23;;;;;;;6.80;3.95;;;13.20;99.90;;;;;;4988205;28;20046;-88
2022/06/14 03:53:05;;;;;;;12.32;3.55;;;13.30;99.90;;;;;;4996619;28;20057;-87
2022/06/14 03:56:26;;;;;;;8.57;3.65;;;13.20;99.90;;;;;;5002108;28;20061;-87
2022/06/14 03:59:16;;;;;;;6.55;3.50;;;13.20;99.90;;;;;;4987984;28;20077;-87
2022/06/14 04:02:15;;;;;;;11.13;3.75;;;13.10;99.90;;;;;;5004486;28;20096;-86
2022/06/14 04:04:52;;;;;;;9.50;4.22;;;13.10;99.90;;;;;;5005384;28;20364;-86
2022/06/14 04:07:38;;;;;;;9.65;3.92;;;13.10;99.90;;;;;;5008385;28;20045;-86
2022/06/14 04:10:20;;;;;;;7.30;3.72;;;13.10;99.90;;;;;;5009307;28;20573;-86
2022/06/14 04:13:05;;;;;;;9.70;4.53;;;13.20;99.90;;;;;;4983562;28;20089;-86
2022/06/14 04:15:44;;;;;;;8.25;5.28;;;13.20;99.90;;;;;;4979902;28;20469;-86
2022/06/14 04:18:35;;;;;;;15.25;5.03;;;13.20;99.90;;;;;;5000560;28;20518;-85
2022/06/14 04:21:11;;;;;;;12.75;4.47;;;13.20;99.90;;;;;;5005753;28;20057;-85
2022/06/14 04:23:47;;;;;;;7.55;3.28;;;13.20;99.90;;;;;;5004335;28;20050;-86
2022/06/14 04:26:46;;;;;;;7.22;3.65;;;13.20;99.90;;;;;;5013051;28;20487;-86
2022/06/14 04:29:23;;;;;;;6.93;3.42;;;13.20;99.90;;;;;;5005555;28;20503;-85
2022/06/14 04:32:08;;;;;;;10.68;3.35;;;13.20;99.90;;;;;;5000064;28;20082;-85
2022/06/14 04:34:51;;;;;;;7.38;3.85;;;13.20;99.90;;;;;;5007026;28;20116;-86
2022/06/14 04:37:36;;;;;;;7.07;5.43;;;13.20;99.90;;;;;;4984649;28;20485;-86
2022/06/14 04:40:06;;;;;;;8.18;5.07;;;13.20;99.90;;;;;;5002182;28;20054;-86
2022/06/14 04:43:01;;;;;;;10.65;3.80;;;13.30;99.90;;;;;;4998759;28;20046;-85
2022/06/14 04:45:46;;;;;;;10.90;4.50;;;13.40;99.90;;;;;;5011283;28;20057;-84
2022/06/14 04:48:22;;;;;;;8.45;4.28;;;13.50;99.90;;;;;;4994999;28;20050;-86
2022/06/14 04:50:54;;;;;;;7.05;4.00;;;13.50;99.90;;;;;;4983685;28;20045;-86
2022/06/14 04:53:38;;;;;;;10.10;3.97;;;13.60;99.90;;;;;;5003776;28;20069;-87
2022/06/14 04:56:32;;;;;;;8.73;3.80;;;13.60;99.90;;;;;;4991985;28;20058;-86
2022/06/14 04:59:12;;;;;;;11.93;4.38;;;13.60;99.90;;;;;;5002335;28;20050;-86
2022/06/14 05:01:58;;;;;;;12.48;4.63;;;13.60;99.90;;;;;;4994962;28;20045;-84
2022/06/14 05:04:32;;;;;;;12.10;4.85;;;13.60;99.90;;;;;;5003432;28;20107;-84
2022/06/14 05:07:20;;;;;;;9.90;4.18;;;13.70;99.90;;;;;;4997967;28;20423;-85
2022/06/14 05:10:12;;;;;;;11.15;4.60;;;13.70;99.90;;;;;;4997230;28;20723;-86
2022/06/14 05:12:56;;;;;;;8.85;3.65;;;13.70;99.90;;;;;;5003710;28;20048;-87
2022/06/14 05:15:55;;;;;;;11.05;4.88;;;13.70;99.90;;;;;;5007571;28;20907;-86
2022/06/14 05:18:32;;;;;;;10.27;4.20;;;13.80;99.90;;;;;;4996477;28;20056;-87
2022/06/14 05:21:13;;;;;;;10.75;5.30;;;13.80;99.90;;;;;;5003784;28;20111;-86
2022/06/14 05:23:49;;;;;;;13.50;5.95;;;13.80;99.90;;;;;;5005448;28;20132;-86
2022/06/14 05:26:47;;;;;;;19.88;6.15;;;13.80;99.90;;;;;;4981918;28;20567;-86
2022/06/14 05:29:25;;;;;;;8.27;4.32;;;13.90;99.90;;;;;;4983196;28;20516;-87
2022/06/14 05:32:05;;;;;;;12.25;4.07;;;13.90;99.90;;;;;;5001509;28;20045;-86
2022/06/14 05:35:08;;;;;;;9.05;3.88;;;13.90;99.90;;;;;;4998475;28;20054;-87
2022/06/14 05:37:39;;;;;;;10.85;4.32;;;14.00;99.90;;;;;;4939399;28;20049;-87
2022/06/14 05:40:12;;;;;;;7.20;4.13;;;14.00;99.90;;;;;;5003943;28;20076;-86
2022/06/14 05:42:48;;;;;;;13.60;5.72;;;14.00;99.90;;;;;;4998692;28;20113;-87
2022/06/14 05:45:18;;;;;;;10.05;3.92;;;14.10;99.90;;;;;;4986168;28;20112;-86
2022/06/14 05:47:50;;;;;;;8.13;4.47;;;14.10;99.90;;;;;;5002689;28;20127;-87
2022/06/14 05:50:23;;;;;;;8.30;4.00;;;14.00;99.90;;;;;;4984489;28;20057;-86
2022/06/14 05:52:55;;;;;;;16.83;4.63;;;14.10;99.90;;;;;;5000965;28;20122;-86
2022/06/14 05:55:34;;;;;;;11.20;4.40;;;14.00;99.90;;;;;;5000555;28;20054;-88
2022/06/14 05:58:06;;;;;;;9.70;3.95;;;14.10;99.90;;;;;;5000057;28;20050;-86
2022/06/14 06:00:56;;;;;;;15.68;4.22;;;14.10;99.90;;;;;;4998020;28;20108;-88
2022/06/14 06:03:38;;;;;;;11.68;3.70;;;14.10;99.90;;;;;;5003703;28;21251;-86
2022/06/14 06:06:11;;;;;;;12.15;4.88;;;14.20;99.90;;;;;;4999019;28;20549;-88
2022/06/14 06:08:47;;;;;;;13.45;5.35;;;14.20;99.90;;;;;;4998593;28;20305;-86
2022/06/14 06:11:43;;;;;;;11.30;6.15;;;14.10;99.90;;;;;;5003744;28;20042;-88
2022/06/14 06:14:34;;;;;;;11.38;4.22;;;14.20;99.90;;;;;;5000179;28;20054;-87
2022/06/14 06:17:05;;;;;;;12.50;4.65;;;14.30;99.90;;;;;;4982349;28;20145;-87
2022/06/14 06:19:53;;;;;;;9.00;4.53;;;14.50;99.90;;;;;;5001359;28;20049;-88
2022/06/14 06:22:33;;;;;;;9.15;5.10;;;14.50;99.90;;;;;;4997785;28;20669;-88
2022/06/14 06:25:05;;;;;;;10.05;4.07;;;14.50;99.90;;;;;;4980224;28;20120;-87
2022/06/14 06:27:48;;;;;;;12.32;4.47;;;14.40;99.90;;;;;;4979557;28;20475;-88
2022/06/14 06:30:24;;;;;;;15.95;6.00;;;14.40;99.90;;;;;;5000650;28;20057;-89
2022/06/14 06:32:52;;;;;;;11.30;4.65;;;14.30;99.90;;;;;;5000234;28;20049;-87
2022/06/14 06:35:23;;;;;;;15.85;4.38;;;14.40;99.90;;;;;;4983270;28;20105;-88
2022/06/14 06:37:59;;;;;;;9.20;4.97;;;14.50;99.90;;;;;;5000857;28;20120;-87
2022/06/14 06:40:26;;;;;;;15.98;6.00;;;14.40;99.90;;;;;;4999333;28;20053;-87
2022/06/14 06:43:11;;;;;;;12.93;6.18;;;14.40;99.90;;;;;;4984280;28;20514;-89
2022/06/14 06:45:44;;;;;;;9.55;5.47;;;14.30;99.90;;;;;;5003824;28;20053;-89
2022/06/14 06:48:21;;;;;;;14.05;5.97;;;14.40;99.90;;;;;;4981011;28;20109;-88
2022/06/14 06:51:05;;;;;;;11.88;5.30;;;14.40;99.90;;;;;;4999721;28;20090;-89
2022/06/14 06:53:57;;;;;;;8.20;4.82;;;14.40;99.90;;;;;;5001148;28;20521;-89
2022/06/14 06:56:37;;;;;;;11.88;5.80;;;14.40;99.90;;;;;;5000433;28;20054;-90
2022/06/14 06:59:09;;;;;;;8.85;4.00;;;14.50;99.90;;;;;;5000370;28;20503;-88
2022/06/14 07:01:39;;;;;;;10.50;4.45;;;14.60;99.90;;;;;;5005402;28;20624;-90
2022/06/14 07:04:18;;;;;;;14.05;4.97;;;14.50;99.90;;;;;;4984535;28;20081;-87
2022/06/14 07:06:50;;;;;;;10.30;5.63;;;14.50;99.90;;;;;;4997099;28;20057;-87
2022/06/14 07:09:24;;;;;;;12.27;4.65;;;14.50;99.90;;;;;;4974446;28;20175;-88
2022/06/14 07:11:59;;;;;;;14.52;5.50;;;14.40;99.90;;;;;;4983008;28;20080;-89
2022/06/14 07:14:30;;;;;;;13.23;5.65;;;14.50;99.90;;;;;;5000557;28;20419;-89
2022/06/14 07:17:25;;;;;;;12.80;4.88;;;14.60;99.90;;;;;;4999203;28;20068;-89
2022/06/14 07:20:00;;;;;;;9.57;4.68;;;14.60;99.90;;;;;;4981451;28;20160;-89
2022/06/14 07:22:37;;;;;;;11.70;4.45;;;14.60;99.90;;;;;;4991013;28;20045;-86
2022/06/14 07:25:11;;;;;;;18.85;6.38;;;14.50;99.90;;;;;;5001459;28;20085;-90
2022/06/14 07:27:50;;;;;;;11.88;4.95;;;14.40;99.90;;;;;;4985465;28;20045;-90
2022/06/14 07:30:34;;;;;;;9.40;4.63;;;14.50;99.90;;;;;;5006668;28;20053;-90
2022/06/14 07:33:02;;;;;;;10.02;5.25;;;14.50;99.90;;;;;;5003310;28;20408;-89
2022/06/14 07:35:57;;;;;;;11.63;4.82;;;14.60;99.90;;;;;;5004622;28;20523;-90
2022/06/14 07:39:02;;;;;;;9.85;3.97;;;14.60;99.90;;;;;;4986599;28;20065;-91
2022/06/14 07:41:42;;;;;;;8.73;5.78;;;14.70;99.90;;;;;;4987882;28;20052;-86
2022/06/14 07:44:17;;;;;;;11.80;4.57;;;14.70;99.90;;;;;;4986597;28;20058;-86
2022/06/14 07:47:03;;;;;;;15.55;5.75;;;14.70;99.90;;;;;;4998917;28;20076;-89
2022/06/14 07:50:02;;;;;;;10.85;4.90;;;14.70;99.90;;;;;;5000099;28;20125;-89
2022/06/14 07:52:51;;;;;;;15.40;5.15;;;14.80;99.90;;;;;;5002028;28;20049;-90
2022/06/14 07:55:30;;;;;;;15.30;5.43;;;14.80;99.90;;;;;;5004963;28;20452;-90
2022/06/14 07:58:04;;;;;;;16.60;4.20;;;15.00;99.90;;;;;;5005235;28;20066;-90
2022/06/14 08:03:37;;;;;;;9.45;5.05;;;15.10;99.90;;;;;;5003533;28;20054;-90
2022/06/14 08:06:09;;;;;;;13.60;5.43;;;15.00;99.90;;;;;;5004202;28;20092;-90
2022/06/14 08:08:39;;;;;;;12.38;5.35;;;14.90;99.90;;;;;;4959025;28;20683;-89
2022/06/14 08:11:49;;;;;;;8.00;4.65;;;15.10;99.90;;;;;;4991179;28;20045;-89
2022/06/14 08:14:27;;;;;;;11.68;4.40;;;15.10;99.90;;;;;;4991377;28;20042;-89
2022/06/14 08:16:56;;;;;;;10.82;4.60;;;15.20;99.90;;;;;;4986700;28;20902;-89
2022/06/14 08:19:31;;;;;;;10.73;5.13;;;15.20;99.90;;;;;;4985238;28;20042;-88
2022/06/14 08:22:15;;;;;;;13.35;5.07;;;15.20;99.90;;;;;;4968123;28;20423;-89
2022/06/14 08:24:48;;;;;;;10.48;4.53;;;15.10;99.90;;;;;;5005714;28;20053;-90
2022/06/14 08:27:38;;;;;;;8.10;5.15;;;15.30;99.90;;;;;;5005026;28;20403;-89
2022/06/14 08:30:10;;;;;;;13.32;5.32;;;15.30;99.90;;;;;;5005890;28;20053;-91
2022/06/14 08:32:48;;;;;;;7.35;4.03;;;15.40;99.90;;;;;;4985385;28;20133;-88
2022/06/14 08:35:59;;;;;;;7.00;4.30;;;15.50;99.90;;;;;;5006029;28;20054;-89
2022/06/14 08:38:43;;;;;;;9.13;4.38;;;15.40;99.90;;;;;;4969425;28;20069;-90
2022/06/14 08:41:28;;;;;;;8.70;3.97;;;15.50;99.90;;;;;;5003750;28;20498;-88
2022/06/14 08:44:03;;;;;;;7.85;4.85;;;15.70;99.90;;;;;;5002062;28;20061;-90
2022/06/14 08:46:38;;;;;;;8.00;4.03;;;15.60;99.90;;;;;;5003422;28;20049;-88
2022/06/14 08:49:27;;;;;;;9.43;4.05;;;15.70;99.90;;;;;;4986260;28;20050;-88
2022/06/14 08:52:13;;;;;;;8.38;4.30;;;15.60;99.90;;;;;;5003228;28;20100;-88
2022/06/14 08:55:03;;;;;;;8.80;4.55;;;15.60;99.90;;;;;;5002627;28;20049;-88
2022/06/14 08:58:01;;;;;;;7.50;4.38;;;15.40;99.90;;;;;;4988012;28;20521;-89
2022/06/14 09:00:34;;;;;;;7.85;4.15;;;15.60;99.90;;;;;;4974444;28;20137;-90
2022/06/14 09:03:16;;;;;;;13.40;4.93;;;15.70;99.90;;;;;;5004433;28;20391;-89
2022/06/14 09:05:58;;;;;;;8.52;3.92;;;15.90;99.90;;;;;;5003718;28;20124;-90
2022/06/14 09:09:03;;;;;;;7.47;4.80;;;16.00;99.90;;;;;;4984681;28;20088;-90
2022/06/14 09:11:55;;;;;;;7.45;3.92;;;15.90;99.90;;;;;;5001865;28;20049;-88
2022/06/14 09:15:00;;;;;;;6.25;3.70;;;16.10;99.90;;;;;;5004240;28;20046;-89
2022/06/14 09:17:48;;;;;;;11.57;5.28;;;16.20;99.90;;;;;;4908083;28;20052;-88
2022/06/14 09:20:26;;;;;;;10.70;4.18;;;16.30;99.90;;;;;;4994832;28;20065;-91
2022/06/14 09:23:11;;;;;;;8.38;4.82;;;16.20;99.90;;;;;;4983756;28;20132;-90
2022/06/14 09:25:46;;;;;;;;;;;16.20;99.90;;;;;;5002442;28;20109;-90
2022/06/14 09:28:36;;;;;;;22.65;6.07;;;16.30;99.90;;;;;;4982409;28;19926;-90
2022/06/14 09:31:28;;;;;;;7.93;3.80;;;16.30;99.90;;;;;;4997531;28;20045;-89
2022/06/14 09:34:29;;;;;;;11.20;3.92;;;16.20;99.90;;;;;;5002117;28;20050;-89
2022/06/14 09:37:20;;;;;;;10.95;4.53;;;16.10;99.90;;;;;;5004042;28;20057;-88
2022/06/14 09:40:18;;;;;;;7.20;4.57;;;16.20;99.90;;;;;;5002625;28;20042;-89
2022/06/14 09:43:15;;;;;;;8.57;3.83;;;16.20;99.90;;;;;;4985810;28;20046;-90
2022/06/14 09:46:14;;;;;;;8.30;3.35;;;16.40;99.90;;;;;;4977089;28;20060;-91
2022/06/14 09:48:50;;;;;;;7.53;3.65;;;16.40;99.90;;;;;;4983864;28;20109;-90
2022/06/14 09:51:33;;;;;;;8.65;4.47;;;16.30;99.90;;;;;;4999426;28;20049;-90
2022/06/14 09:54:24;;;;;;;7.18;3.90;;;16.40;99.90;;;;;;4969022;28;20491;-90
2022/06/14 09:57:08;;;;;;;6.57;4.25;;;16.40;99.90;;;;;;4978829;28;20058;-90
2022/06/14 09:59:51;;;;;;;6.25;3.58;;;16.60;99.90;;;;;;4981886;28;20525;-90
2022/06/14 10:02:47;;;;;;;7.47;3.63;;;16.70;99.90;;;;;;4941275;28;20109;-89
2022/06/14 10:05:21;;;;;;;18.25;5.30;;;16.90;99.90;;;;;;5005234;28;20431;-90
2022/06/14 10:08:29;;;;;;;8.73;4.35;;;17.00;99.90;;;;;;4968433;28;20046;-90
2022/06/14 10:11:23;;;;;;;6.75;4.07;;;17.00;99.90;;;;;;5000802;28;20058;-90
2022/06/14 10:14:27;;;;;;;14.43;5.80;;;17.10;99.90;;;;;;4988474;28;20052;-90
2022/06/14 10:17:15;;;;;;;10.43;3.83;;;17.00;99.90;;;;;;4966603;28;20144;-90
2022/06/14 10:19:54;;;;;;;8.23;3.80;;;17.10;99.90;;;;;;5002119;28;20136;-90
2022/06/14 10:22:36;;;;;;;6.93;3.85;;;17.10;99.90;;;;;;4981292;28;20677;-90
2022/06/14 10:25:10;;;;;;;10.15;5.55;;;17.10;99.90;;;;;;4999938;28;20200;-90
2022/06/14 10:28:12;;;;;;;5.93;3.33;;;17.20;99.90;;;;;;5003365;28;20822;-90
2022/06/14 10:31:05;;;;;;;12.43;4.75;;;17.10;99.90;;;;;;4995787;28;20041;-90
2022/06/14 10:33:46;;;;;;;7.60;2.92;;;17.30;99.90;;;;;;4982348;28;20073;-89
2022/06/14 10:36:44;;;;;;;7.70;4.32;;;17.30;99.90;;;;;;4985220;28;20553;-89
2022/06/14 10:39:48;;;;;;;9.55;3.53;;;17.50;99.90;;;;;;4999856;28;20050;-89
2022/06/14 10:42:40;;;;;;;12.65;3.42;;;17.40;99.90;;;;;;4997786;28;20623;-89
2022/06/14 10:45:14;;;;;;;6.95;3.13;;;17.30;99.90;;;;;;4981134;28;20117;-90
2022/06/14 10:48:18;;;;;;;10.55;3.75;;;17.20;99.90;;;;;;5003904;28;20050;-89
2022/06/14 10:50:49;;;;;;;7.25;3.08;;;17.00;99.90;;;;;;4997885;28;20046;-87
2022/06/14 10:53:38;;;;;;;10.55;4.65;;;17.00;99.90;;;;;;4966137;28;20676;-88
2022/06/14 10:56:28;;;;;;;9.88;2.92;;;17.10;99.90;;;;;;5002352;28;20391;-88
2022/06/14 10:59:14;;;;;;;5.25;3.40;;;17.40;99.90;;;;;;5001344;28;20038;-88
2022/06/14 11:02:04;;;;;;;10.65;4.30;;;17.60;99.90;;;;;;4986522;28;20076;-88
2022/06/14 11:05:09;;;;;;;4.35;2.97;;;17.70;99.90;;;;;;4980113;28;20491;-88
2022/06/14 11:07:45;;;;;;;6.55;3.58;;;17.80;99.90;;;;;;4970381;28;20042;-88
2022/06/14 11:10:26;;;;;;;7.78;3.25;;;17.90;99.90;;;;;;5000944;28;20208;-89
2022/06/14 11:13:02;;;;;;;3.65;2.42;;;17.80;99.90;;;;;;5003845;28;20037;-87
2022/06/14 11:15:55;;;;;;;11.55;3.67;;;17.90;99.90;;;;;;4986774;28;20149;-88
2022/06/14 11:18:31;;;;;;;4.28;2.83;;;18.00;99.90;;;;;;4986002;28;20061;-88
2022/06/14 11:21:10;;;;;;;4.93;2.80;;;18.00;99.90;;;;;;5006995;28;20463;-88
2022/06/14 11:24:13;;;;;;;7.60;4.28;;;18.00;99.90;;;;;;4982509;28;20053;-88
2022/06/14 11:26:56;;;;;;;10.25;2.90;;;18.00;99.90;;;;;;5005241;28;20077;-89
2022/06/14 11:29:55;;;;;;;6.70;2.72;;;18.10;99.90;;;;;;4997486;28;20060;-88
2022/06/14 11:32:38;;;;;;;7.38;3.25;;;18.20;99.90;;;;;;4985718;28;20108;-89
2022/06/14 11:35:29;;;;;;;10.05;3.13;;;18.30;99.90;;;;;;4985624;28;20252;-89
2022/06/14 11:38:11;;;;;;;5.85;3.13;;;18.20;99.90;;;;;;4988123;28;20058;-87
2022/06/14 11:40:46;;;;;;;5.93;3.17;;;18.30;99.90;;;;;;4999719;28;20049;-88
2022/06/14 11:43:27;;;;;;;6.47;3.03;;;18.40;99.90;;;;;;5001827;28;20054;-90
2022/06/14 11:46:04;;;;;;;8.50;2.60;;;18.40;99.90;;;;;;5001185;28;20060;-88
2022/06/14 11:48:43;;;;;;;5.93;3.72;;;18.60;99.90;;;;;;4997679;28;20376;-88
2022/06/14 11:51:24;;;;;;;6.03;3.15;;;18.70;99.90;;;;;;5005862;28;20046;-88
2022/06/14 11:53:59;;;;;;;5.68;2.92;;;18.70;99.90;;;;;;5004109;28;20050;-88
2022/06/14 11:57:09;;;;;;;5.05;3.28;;;18.80;99.90;;;;;;5004336;28;20050;-88
2022/06/14 12:00:00;;;;;;;9.23;3.30;;;18.90;99.90;;;;;;5005003;28;20458;-87
2022/06/14 12:02:50;;;;;;;6.72;3.13;;;18.80;99.90;;;;;;4999746;28;20044;-88
2022/06/14 12:05:38;;;;;;;5.28;2.70;;;18.80;99.90;;;;;;5004341;28;20126;-89
2022/06/14 12:08:30;;;;;;;3.40;1.67;;;18.90;99.90;;;;;;5002009;28;20050;-87
2022/06/14 12:11:09;;;;;;;3.55;1.85;;;18.80;99.90;;;;;;5003812;28;20057;-87
2022/06/14 12:14:12;;;;;;;7.82;2.50;;;18.20;99.90;;;;;;5005636;28;20056;-88
2022/06/14 12:17:12;;;;;;;5.35;2.67;;;18.30;99.90;;;;;;4931242;28;20086;-88
2022/06/14 12:20:12;;;;;;;5.45;2.60;;;18.50;99.90;;;;;;4959070;28;20098;-88
2022/06/14 12:23:08;;;;;;;;;;;18.80;99.90;;;;;;4966985;28;20042;-88
2022/06/14 12:28:50;;;;;;;4.05;2.47;;;18.90;99.90;;;;;;4997584;28;20221;-88
2022/06/14 12:31:35;;;;;;;4.75;2.10;;;19.00;99.90;;;;;;5004516;28;20129;-88
2022/06/14 12:34:29;;;;;;;8.60;3.65;;;18.90;99.90;;;;;;4999905;28;20061;-87
2022/06/14 12:37:21;;;;;;;5.63;2.30;;;18.80;99.90;;;;;;5000335;28;20061;-88
2022/06/14 12:40:21;;;;;;;5.65;3.05;;;18.90;99.90;;;;;;5011120;28;20045;-87
2022/06/14 12:43:00;;;;;;;4.07;1.90;;;18.90;99.90;;;;;;4987794;28;20049;-87
2022/06/14 12:45:38;;;;;;;3.97;1.80;;;19.00;99.90;;;;;;5007976;28;20050;-87
2022/06/14 12:48:23;;;;;;;3.58;2.58;;;19.30;99.90;;;;;;4988281;28;20045;-87
2022/06/14 12:51:03;;;;;;;4.78;2.33;;;19.60;99.90;;;;;;4983504;28;20054;-87
2022/06/14 12:53:58;;;;;;;2.42;2.22;;;19.60;99.90;;;;;;5009693;28;20690;-87
2022/06/14 12:56:58;;;;;;;6.55;3.30;;;19.60;99.90;;;;;;4999625;28;20447;-87
2022/06/14 12:59:41;;;;;;;5.22;2.05;;;19.60;99.90;;;;;;4987434;28;20091;-86
2022/06/14 13:02:42;;;;;;;6.80;2.80;;;19.90;99.90;;;;;;5006812;28;20145;-87
2022/06/14 13:05:09;;;;;;;5.80;2.47;;;20.00;99.90;;;;;;5003435;28;20058;-86
2022/06/14 13:07:49;;;;;;;1.73;1.00;;;20.30;99.90;;;;;;5005326;28;20050;-87
2022/06/14 13:10:24;;;;;;;3.83;1.67;;;20.10;99.90;;;;;;4989402;28;20108;-87
2022/06/14 13:13:03;;;;;;;5.40;1.67;;;19.90;99.90;;;;;;5005620;28;20100;-88
2022/06/14 13:15:59;;;;;;;3.55;2.05;;;19.70;99.90;;;;;;5002875;28;20090;-87
2022/06/14 13:19:10;;;;;;;6.32;2.08;;;19.50;99.90;;;;;;5000279;28;20049;-87
2022/06/14 13:22:13;;;;;;;2.85;1.77;;;19.70;99.90;;;;;;4995579;28;20129;-87
2022/06/14 13:25:09;;;;;;;2.83;1.90;;;19.60;99.90;;;;;;5004254;28;20448;-86
2022/06/14 13:27:39;;;;;;;5.57;2.33;;;19.70;99.90;;;;;;4975872;28;20046;-87
2022/06/14 13:30:31;;;;;;;9.93;2.60;;;19.90;99.90;;;;;;5004841;28;20526;-87
2022/06/14 13:33:20;;;;;;;3.50;1.88;;;20.10;99.90;;;;;;5000603;28;20046;-87
2022/06/14 13:36:09;;;;;;;6.32;2.38;;;20.10;99.90;;;;;;5010910;28;20041;-85
2022/06/14 13:38:42;;;;;;;3.08;2.00;;;20.60;99.90;;;;;;5002541;28;20112;-85
2022/06/14 13:41:09;;;;;;;3.40;1.55;;;20.50;99.90;;;;;;5003034;28;20100;-85
2022/06/14 13:43:50;;;;;;;4.10;1.65;;;20.50;99.90;;;;;;5001972;28;20470;-85
2022/06/14 13:46:25;;;;;;;4.38;2.28;;;20.80;99.90;;;;;;5004995;28;20045;-85
2022/06/14 13:49:22;;;;;;;2.08;1.40;;;20.70;99.90;;;;;;5013518;28;20045;-85
2022/06/14 13:52:14;;;;;;;3.17;2.28;;;20.90;99.90;;;;;;5003003;28;20060;-85
2022/06/14 13:54:56;;;;;;;5.35;1.80;;;20.70;99.90;;;;;;5000079;28;20184;-85
2022/06/14 13:57:33;;;;;;;9.52;2.65;;;20.70;99.90;;;;;;4998015;28;20060;-85
2022/06/14 14:00:13;;;;;;;4.65;2.40;;;20.50;99.90;;;;;;5005786;28;20053;-86
2022/06/14 14:03:28;;;;;;;4.25;2.20;;;20.40;99.90;;;;;;5005212;28;20073;-84
2022/06/14 14:06:00;;;;;;;3.95;2.05;;;20.40;99.90;;;;;;4957913;28;20062;-85
2022/06/14 14:08:44;;;;;;;3.67;2.15;;;20.00;99.90;;;;;;4982100;28;20058;-85
2022/06/14 14:11:26;;;;;;;3.20;1.85;;;20.00;99.90;;;;;;5002379;28;20199;-86
2022/06/14 14:14:20;;;;;;;7.10;2.33;;;20.10;99.90;;;;;;5005136;28;20041;-85